Time;durP1;ratioP1;P1;durP2;ratioP2;P2;SDS_P1;SDS_P2;PMS_P1;PMS_P2;Temp;Humidity;BMP_temperature;BMP_pressure;BME280_temperature;BME280_humidity;BME280_pressure;Samples;Min_cycle;Max_cycle;Signal;HPM_P1;HPM_P2
2023/07/05 00:01:14;;;;;;;4.40;1.95;;;14.10;99.90;;;;;;5031203;28;20114;-49
2023/07/05 00:03:40;;;;;;;3.88;1.67;;;14.00;99.90;;;;;;5031228;28;20099;-51
2023/07/05 00:06:06;;;;;;;4.88;2.08;;;14.00;99.90;;;;;;5030929;28;20398;-50
2023/07/05 00:08:33;;;;;;;9.88;2.08;;;14.00;99.90;;;;;;5031048;28;20034;-47
2023/07/05 00:11:07;;;;;;;4.00;2.05;;;13.90;99.90;;;;;;5030855;28;20045;-51
2023/07/05 00:13:34;;;;;;;3.85;1.60;;;13.90;99.90;;;;;;5030946;28;20025;-46
2023/07/05 00:16:00;;;;;;;2.75;1.40;;;13.80;99.90;;;;;;5030684;28;20025;-46
2023/07/05 00:18:28;;;;;;;2.53;1.38;;;13.00;99.90;;;;;;5030841;28;20132;-46
2023/07/05 00:21:03;;;;;;;3.83;1.52;;;13.90;99.90;;;;;;5030669;28;20037;-47
2023/07/05 00:23:34;;;;;;;3.58;1.60;;;13.70;99.90;;;;;;5029981;28;20025;-49
2023/07/05 00:25:59;;;;;;;4.18;1.45;;;13.60;99.90;;;;;;5030708;28;20026;-52
2023/07/05 00:28:25;;;;;;;2.75;1.50;;;14.20;99.90;;;;;;5030856;28;20100;-45
2023/07/05 00:30:51;;;;;;;2.30;1.35;;;13.50;99.90;;;;;;5030871;28;20025;-45
2023/07/05 00:33:17;;;;;;;6.75;1.65;;;13.50;99.90;;;;;;5030551;28;20488;-45
2023/07/05 00:35:53;;;;;;;2.53;1.52;;;13.50;99.90;;;;;;5030670;28;20027;-46
2023/07/05 00:38:20;;;;;;;4.88;1.70;;;13.50;99.90;;;;;;5030507;28;20038;-46
2023/07/05 00:40:46;;;;;;;2.40;1.58;;;13.40;99.90;;;;;;5030591;28;20076;-45
2023/07/05 00:43:14;;;;;;;4.05;1.77;;;13.40;99.90;;;;;;5030678;28;20041;-48
2023/07/05 00:45:59;;;;;;;2.80;1.60;;;13.40;99.90;;;;;;5030241;28;20028;-47
2023/07/05 00:48:29;;;;;;;2.40;1.40;;;13.50;99.90;;;;;;5030436;28;20084;-46
2023/07/05 00:50:57;;;;;;;2.70;1.42;;;12.80;99.90;;;;;;5030604;28;20544;-46
2023/07/05 00:53:25;;;;;;;2.83;1.52;;;15.40;99.90;;;;;;5030562;28;20041;-51
2023/07/05 00:55:56;;;;;;;4.50;1.73;;;13.50;99.90;;;;;;5030201;28;20410;-51
2023/07/05 00:58:23;;;;;;;3.08;1.60;;;13.40;99.90;;;;;;5030411;28;20037;-47
2023/07/05 01:00:49;;;;;;;6.82;2.50;;;13.40;99.90;;;;;;5030303;28;20116;-46
2023/07/05 01:03:20;;;;;;;2.97;1.60;;;13.40;99.90;;;;;;5030445;28;20434;-49
2023/07/05 01:05:48;;;;;;;3.53;1.60;;;13.40;99.90;;;;;;5030148;28;20385;-54
2023/07/05 01:08:14;;;;;;;2.35;1.40;;;13.30;99.90;;;;;;5030473;28;20027;-49
2023/07/05 01:10:47;;;;;;;5.03;1.92;;;13.30;99.90;;;;;;5029984;28;20037;-49
2023/07/05 01:13:18;;;;;;;2.63;1.30;;;13.30;99.90;;;;;;5030632;28;20037;-49
2023/07/05 01:16:14;;;;;;;2.35;1.35;;;13.30;99.90;;;;;;5030150;28;20019;-51
2023/07/05 01:18:45;;;;;;;4.45;1.40;;;13.20;99.90;;;;;;5029988;28;20091;-48
2023/07/05 01:21:43;;;;;;;3.67;1.63;;;13.30;99.90;;;;;;5029942;28;20597;-46
2023/07/05 01:24:48;;;;;;;2.83;1.38;;;13.20;99.90;;;;;;5028887;28;20029;-50
2023/07/05 01:27:38;;;;;;;2.33;1.35;;;13.10;99.90;;;;;;5030301;28;20020;-51
2023/07/05 01:30:16;;;;;;;2.70;1.60;;;13.10;99.90;;;;;;5030267;28;20021;-53
2023/07/05 01:32:55;;;;;;;2.22;1.42;;;13.10;99.90;;;;;;5030071;28;20028;-49
2023/07/05 01:35:25;;;;;;;3.88;1.65;;;13.10;99.90;;;;;;5032697;28;20026;-50
2023/07/05 01:37:51;;;;;;;2.78;1.60;;;13.10;99.90;;;;;;5033679;28;20043;-51
2023/07/05 01:40:25;;;;;;;2.33;1.40;;;13.00;99.90;;;;;;5019182;28;20104;-45
2023/07/05 01:42:56;;;;;;;1.92;1.20;;;13.10;99.90;;;;;;5012706;28;20482;-48
2023/07/05 01:45:37;;;;;;;4.60;1.52;;;13.10;99.90;;;;;;5013665;28;20109;-56
2023/07/05 01:48:30;;;;;;;2.90;1.50;;;13.00;99.90;;;;;;5013514;28;20026;-47
2023/07/05 01:51:07;;;;;;;2.75;1.60;;;13.00;99.90;;;;;;5009570;28;20176;-55
2023/07/05 01:53:55;;;;;;;2.20;1.45;;;13.00;99.90;;;;;;5013572;28;20030;-48
2023/07/05 01:56:30;;;;;;;4.55;1.83;;;13.00;99.90;;;;;;5013380;28;20085;-51
2023/07/05 01:58:58;;;;;;;3.10;1.60;;;13.00;99.90;;;;;;5013516;28;20026;-48
2023/07/05 02:01:25;;;;;;;4.05;2.03;;;13.00;99.90;;;;;;5013337;28;20482;-49
2023/07/05 02:03:53;;;;;;;2.55;1.13;;;12.90;99.90;;;;;;5013285;28;20088;-49
2023/07/05 02:06:20;;;;;;;2.72;1.58;;;12.90;99.90;;;;;;5013278;28;20029;-48
2023/07/05 02:08:49;;;;;;;4.20;1.98;;;12.90;99.90;;;;;;5013220;28;20058;-45
2023/07/05 02:11:15;;;;;;;3.92;1.70;;;12.90;99.90;;;;;;5013040;28;20045;-48
2023/07/05 02:13:41;;;;;;;2.45;1.42;;;12.90;99.90;;;;;;5013013;28;20475;-51
2023/07/05 02:16:07;;;;;;;6.45;1.80;;;12.80;99.90;;;;;;5013121;28;20021;-54
2023/07/05 02:18:33;;;;;;;3.25;1.40;;;12.90;99.90;;;;;;5013165;28;20073;-49
2023/07/05 02:20:58;;;;;;;4.80;1.83;;;12.90;99.90;;;;;;5013260;28;20014;-52
2023/07/05 02:23:24;;;;;;;2.83;1.42;;;12.80;99.90;;;;;;5013207;28;20522;-48
2023/07/05 02:25:58;;;;;;;9.27;1.85;;;12.80;99.90;;;;;;5013062;28;20025;-53
2023/07/05 02:28:23;;;;;;;2.80;1.73;;;12.90;99.90;;;;;;5013168;28;20026;-49
2023/07/05 02:30:49;;;;;;;3.58;1.75;;;12.80;99.90;;;;;;5013106;28;20101;-47
2023/07/05 02:33:14;;;;;;;5.10;1.85;;;12.70;99.90;;;;;;5013032;28;20041;-49
2023/07/05 02:35:40;;;;;;;3.67;1.33;;;12.70;99.90;;;;;;5012909;28;20080;-55
2023/07/05 02:38:06;;;;;;;3.47;1.65;;;12.70;99.90;;;;;;5012792;28;20079;-51
2023/07/05 02:40:32;;;;;;;4.15;1.77;;;12.60;99.90;;;;;;5012986;28;20026;-46
2023/07/05 02:42:59;;;;;;;4.22;1.92;;;12.60;99.90;;;;;;5012977;28;20064;-56
2023/07/05 02:45:28;;;;;;;3.75;1.95;;;12.60;99.90;;;;;;5012369;28;20022;-53
2023/07/05 02:47:54;;;;;;;3.95;1.80;;;12.60;99.90;;;;;;5012222;28;20025;-53
2023/07/05 02:50:20;;;;;;;3.10;1.65;;;12.50;99.90;;;;;;5012793;28;20033;-51
2023/07/05 02:52:46;;;;;;;3.47;1.63;;;12.50;99.90;;;;;;5012495;28;20022;-51
2023/07/05 02:55:11;;;;;;;4.75;2.28;;;12.40;99.90;;;;;;5012661;28;20026;-51
2023/07/05 02:57:37;;;;;;;7.32;2.40;;;12.30;99.90;;;;;;5012606;28;20033;-54
2023/07/05 03:00:06;;;;;;;4.40;2.00;;;12.30;99.90;;;;;;5012385;28;20022;-47
2023/07/05 03:02:32;;;;;;;3.83;1.70;;;12.20;99.90;;;;;;5012668;28;20029;-51
2023/07/05 03:04:57;;;;;;;3.75;2.35;;;12.20;99.90;;;;;;5012335;28;20030;-46
2023/07/05 03:07:23;;;;;;;3.22;1.88;;;12.20;99.90;;;;;;5012484;28;20026;-48
2023/07/05 03:09:48;;;;;;;3.80;1.65;;;12.10;99.90;;;;;;5012117;28;20076;-49
2023/07/05 03:12:17;;;;;;;4.03;1.90;;;12.10;99.90;;;;;;5012329;28;20026;-49
2023/07/05 03:14:43;;;;;;;4.47;1.98;;;12.10;99.90;;;;;;5012353;28;20026;-50
2023/07/05 03:17:08;;;;;;;4.47;1.77;;;12.10;99.90;;;;;;5007406;28;20103;-45
2023/07/05 03:19:34;;;;;;;5.68;2.30;;;12.00;99.90;;;;;;5012240;28;20049;-50
2023/07/05 03:22:00;;;;;;;4.65;2.00;;;12.00;99.90;;;;;;5011884;28;20038;-46
2023/07/05 03:24:26;;;;;;;6.47;2.22;;;12.00;99.90;;;;;;5012293;28;20018;-48
2023/07/05 03:26:52;;;;;;;3.28;2.00;;;12.00;99.90;;;;;;5011931;28;20026;-46
2023/07/05 03:29:18;;;;;;;7.32;2.20;;;12.00;99.90;;;;;;5011953;28;20429;-51
2023/07/05 03:31:43;;;;;;;3.20;1.90;;;12.00;99.90;;;;;;5011788;28;20058;-48
2023/07/05 03:34:09;;;;;;;4.40;2.40;;;11.90;99.90;;;;;;5011828;28;20030;-46
2023/07/05 03:36:35;;;;;;;3.40;2.00;;;12.00;99.90;;;;;;5011750;28;20045;-48
2023/07/05 03:39:01;;;;;;;3.78;2.00;;;12.00;99.90;;;;;;5011818;28;20022;-45
2023/07/05 03:41:26;;;;;;;3.53;2.08;;;12.00;99.90;;;;;;5011689;28;20025;-50
2023/07/05 03:44:00;;;;;;;6.40;2.35;;;11.70;99.90;;;;;;5011536;28;20029;-52
2023/07/05 03:46:26;;;;;;;4.60;2.10;;;11.90;99.90;;;;;;5011688;28;20554;-51
2023/07/05 03:48:52;;;;;;;8.10;2.40;;;11.90;99.90;;;;;;5011621;28;20041;-50
2023/07/05 03:51:20;;;;;;;6.03;2.38;;;11.90;99.90;;;;;;5011519;28;20018;-47
2023/07/05 03:53:51;;;;;;;3.92;2.08;;;11.20;99.90;;;;;;5011691;28;20029;-53
2023/07/05 03:56:16;;;;;;;4.85;2.08;;;11.80;99.90;;;;;;5011315;28;20467;-53
2023/07/05 03:58:42;;;;;;;4.28;2.08;;;11.90;99.90;;;;;;5011238;28;20036;-45
2023/07/05 04:01:15;;;;;;;3.70;1.80;;;11.90;99.90;;;;;;5011627;28;20031;-47
2023/07/05 04:03:46;;;;;;;4.22;2.08;;;11.90;99.90;;;;;;5011787;28;20061;-50
2023/07/05 04:06:12;;;;;;;3.15;1.83;;;11.80;99.90;;;;;;5011200;28;20394;-49
2023/07/05 04:08:39;;;;;;;4.28;1.77;;;11.80;99.90;;;;;;5011017;28;20538;-46
2023/07/05 04:11:05;;;;;;;5.05;2.20;;;11.80;99.90;;;;;;5010922;28;20081;-46
2023/07/05 04:13:31;;;;;;;5.28;2.20;;;11.80;99.90;;;;;;5011186;28;20053;-50
2023/07/05 04:15:59;;;;;;;5.43;1.80;;;11.80;99.90;;;;;;5011112;28;20100;-54
2023/07/05 04:18:25;;;;;;;7.95;1.90;;;11.90;99.90;;;;;;5010942;28;20499;-45
2023/07/05 04:20:50;;;;;;;3.67;1.70;;;11.90;99.90;;;;;;5010880;28;20376;-45
2023/07/05 04:23:16;;;;;;;3.78;1.80;;;11.80;99.90;;;;;;5010870;28;20037;-46
2023/07/05 04:25:41;;;;;;;4.95;1.33;;;12.50;99.90;;;;;;5011035;28;20034;-47
2023/07/05 04:28:07;;;;;;;5.30;2.05;;;11.90;99.90;;;;;;5010896;28;20021;-44
2023/07/05 04:30:32;;;;;;;2.92;1.50;;;11.90;99.90;;;;;;5010921;28;20371;-45
2023/07/05 04:32:58;;;;;;;3.63;1.42;;;11.90;99.90;;;;;;5010687;28;20049;-46
2023/07/05 04:35:24;;;;;;;3.78;1.95;;;11.90;99.90;;;;;;5010943;28;20021;-46
2023/07/05 04:37:49;;;;;;;4.43;1.50;;;11.90;99.90;;;;;;5010672;28;20111;-49
2023/07/05 04:40:15;;;;;;;5.93;1.60;;;12.00;99.90;;;;;;5010711;28;20029;-49
2023/07/05 04:42:40;;;;;;;2.40;1.33;;;12.00;99.90;;;;;;5010928;28;20049;-45
2023/07/05 04:45:07;;;;;;;2.72;1.52;;;12.00;99.90;;;;;;5010729;28;20097;-49
2023/07/05 04:47:33;;;;;;;2.40;1.30;;;12.00;99.90;;;;;;5010377;28;20026;-52
2023/07/05 04:49:58;;;;;;;4.57;1.35;;;12.00;99.90;;;;;;5009557;28;20079;-53
2023/07/05 04:52:24;;;;;;;2.00;1.33;;;12.10;99.90;;;;;;5010697;28;20029;-45
2023/07/05 04:54:49;;;;;;;3.10;1.38;;;12.10;99.90;;;;;;5010622;28;20165;-49
2023/07/05 04:57:15;;;;;;;2.08;1.08;;;12.20;99.90;;;;;;5010700;28;20037;-52
2023/07/05 04:59:43;;;;;;;2.58;1.20;;;12.30;99.90;;;;;;5010522;28;20030;-50
2023/07/05 05:02:10;;;;;;;4.20;1.17;;;12.60;99.90;;;;;;5010808;28;20026;-47
2023/07/05 05:04:35;;;;;;;1.33;1.13;;;13.00;99.90;;;;;;5010500;28;20029;-45
2023/07/05 05:07:01;;;;;;;1.75;1.00;;;13.40;99.90;;;;;;5010785;28;20029;-54
2023/07/05 05:09:27;;;;;;;4.20;1.15;;;13.70;99.90;;;;;;5011356;28;20098;-46
2023/07/05 05:11:52;;;;;;;4.72;1.10;;;14.00;99.90;;;;;;5014158;28;20049;-50
2023/07/05 05:14:18;;;;;;;2.83;1.15;;;14.20;99.90;;;;;;5014245;28;20069;-51
2023/07/05 05:16:43;;;;;;;3.13;1.25;;;14.30;99.90;;;;;;5013893;28;20042;-50
2023/07/05 05:19:09;;;;;;;2.30;1.13;;;14.30;99.90;;;;;;5014184;28;20101;-48
2023/07/05 05:21:34;;;;;;;2.92;1.00;;;14.80;99.90;;;;;;5014129;28;20084;-51
2023/07/05 05:24:00;;;;;;;1.70;1.02;;;14.20;99.90;;;;;;5014158;28;20490;-46
2023/07/05 05:26:26;;;;;;;2.08;0.98;;;14.20;99.90;;;;;;5014247;28;20030;-51
2023/07/05 05:28:51;;;;;;;3.00;0.95;;;14.10;99.90;;;;;;5013966;28;20435;-45
2023/07/05 05:31:17;;;;;;;2.20;0.90;;;14.00;99.90;;;;;;5013999;28;20022;-46
2023/07/05 05:33:42;;;;;;;3.25;1.00;;;14.00;99.90;;;;;;5014032;28;20018;-49
2023/07/05 05:36:08;;;;;;;3.53;1.00;;;14.00;99.90;;;;;;5013958;28;20440;-48
2023/07/05 05:38:35;;;;;;;2.05;1.00;;;14.00;99.90;;;;;;5013776;28;20026;-49
2023/07/05 05:41:08;;;;;;;6.00;1.40;;;14.10;99.90;;;;;;5014061;28;20130;-50
2023/07/05 05:43:34;;;;;;;4.80;0.93;;;14.10;99.90;;;;;;5013768;28;20032;-50
2023/07/05 05:46:00;;;;;;;1.67;0.93;;;14.10;99.90;;;;;;5013640;28;20347;-45
2023/07/05 05:48:26;;;;;;;3.22;1.27;;;14.20;99.90;;;;;;5013611;28;20034;-56
2023/07/05 05:50:52;;;;;;;3.60;1.27;;;14.30;99.90;;;;;;5013832;28;20033;-44
2023/07/05 05:53:17;;;;;;;4.00;1.15;;;14.50;99.90;;;;;;5013701;28;20034;-52
2023/07/05 05:55:43;;;;;;;1.88;1.10;;;14.80;99.90;;;;;;5013597;28;20022;-48
2023/07/05 05:58:09;;;;;;;1.75;1.10;;;15.10;99.90;;;;;;5013512;28;20504;-52
2023/07/05 06:00:34;;;;;;;3.72;0.95;;;15.70;99.90;;;;;;5013218;28;20022;-47
2023/07/05 06:03:01;;;;;;;5.07;1.17;;;16.30;99.90;;;;;;5013473;28;20475;-52
2023/07/05 06:05:26;;;;;;;3.88;1.02;;;16.80;99.90;;;;;;5013329;28;20025;-47
2023/07/05 06:07:53;;;;;;;5.35;1.10;;;17.20;99.90;;;;;;5013481;28;20072;-46
2023/07/05 06:10:19;;;;;;;3.10;1.10;;;17.50;99.90;;;;;;5008473;28;20050;-52
2023/07/05 06:12:45;;;;;;;2.13;1.15;;;17.90;99.90;;;;;;5013320;28;20044;-46
2023/07/05 06:15:13;;;;;;;4.40;0.90;;;18.40;99.90;;;;;;5012836;28;20118;-45
2023/07/05 06:17:39;;;;;;;2.28;1.08;;;18.50;99.90;;;;;;5012921;28;20380;-46
2023/07/05 06:20:06;;;;;;;4.82;1.00;;;19.00;99.90;;;;;;5009049;28;20443;-51
2023/07/05 06:22:33;;;;;;;2.88;0.93;;;19.40;99.90;;;;;;5012016;28;20030;-54
2023/07/05 06:24:58;;;;;;;2.63;1.25;;;19.60;99.90;;;;;;5012961;28;20495;-49
2023/07/05 06:27:24;;;;;;;3.40;0.88;;;20.10;99.90;;;;;;5012929;28;20034;-49
2023/07/05 06:29:49;;;;;;;2.70;1.20;;;20.90;99.90;;;;;;5012943;28;20053;-46
2023/07/05 06:32:15;;;;;;;2.42;1.10;;;20.80;99.90;;;;;;5012239;28;20037;-51
2023/07/05 06:34:41;;;;;;;2.10;0.98;;;21.10;99.90;;;;;;5013010;28;20087;-47
2023/07/05 06:37:06;;;;;;;3.92;1.20;;;21.30;99.90;;;;;;5012703;28;20034;-49
2023/07/05 06:39:32;;;;;;;1.90;0.85;;;21.60;99.90;;;;;;5012853;28;20033;-46
2023/07/05 06:41:57;;;;;;;2.08;0.95;;;21.80;99.90;;;;;;5012640;28;20068;-46
2023/07/05 06:44:23;;;;;;;2.50;1.00;;;21.80;99.90;;;;;;5011729;28;20068;-51
2023/07/05 06:46:49;;;;;;;1.88;0.77;;;22.00;99.90;;;;;;5001460;28;20041;-48
2023/07/05 06:49:15;;;;;;;1.55;0.98;;;22.20;99.90;;;;;;5039140;28;20033;-53
2023/07/05 06:51:41;;;;;;;3.00;1.10;;;22.80;99.90;;;;;;5012453;28;20091;-47
2023/07/05 06:54:06;;;;;;;1.95;0.80;;;23.10;99.90;;;;;;5012153;28;20061;-50
2023/07/05 06:56:33;;;;;;;4.30;0.85;;;23.20;99.90;;;;;;5012130;28;20040;-51
2023/07/05 06:58:59;;;;;;;2.85;1.00;;;23.30;99.90;;;;;;5012321;28;20360;-44
2023/07/05 07:01:25;;;;;;;2.42;0.90;;;23.50;99.90;;;;;;5009539;28;20048;-44
2023/07/05 07:03:50;;;;;;;2.45;0.80;;;23.50;99.90;;;;;;5003246;28;20029;-44
2023/07/05 07:06:16;;;;;;;2.08;0.75;;;23.80;99.90;;;;;;5025267;28;20033;-50
2023/07/05 07:08:42;;;;;;;3.92;1.10;;;23.70;99.90;;;;;;5012061;28;20438;-49
2023/07/05 07:11:10;;;;;;;4.90;0.80;;;23.50;99.90;;;;;;5012048;28;20115;-49
2023/07/05 07:13:35;;;;;;;1.25;0.77;;;22.90;99.90;;;;;;5011999;28;20018;-51
2023/07/05 07:16:13;;;;;;;2.90;0.80;;;22.10;99.90;;;;;;5012196;28;20394;-48
2023/07/05 07:18:41;;;;;;;2.28;0.80;;;21.50;99.90;;;;;;5012008;28;20030;-45
2023/07/05 07:21:09;;;;;;;2.97;1.10;;;20.70;99.90;;;;;;5011989;28;20053;-47
2023/07/05 07:23:34;;;;;;;3.80;1.00;;;20.40;99.90;;;;;;5011733;28;20014;-48
2023/07/05 07:26:04;;;;;;;1.02;0.80;;;19.90;99.90;;;;;;5011749;28;20113;-46
2023/07/05 07:28:30;;;;;;;1.55;1.05;;;19.50;99.90;;;;;;5002974;28;20030;-45
2023/07/05 07:30:57;;;;;;;1.83;1.15;;;19.40;99.90;;;;;;5011151;28;20704;-50
2023/07/05 07:33:23;;;;;;;1.67;1.10;;;19.20;99.90;;;;;;5011277;28;20379;-47
2023/07/05 07:35:49;;;;;;;2.00;1.10;;;19.10;99.90;;;;;;5011775;28;20068;-48
2023/07/05 07:38:16;;;;;;;2.25;1.10;;;19.20;99.90;;;;;;5011472;28;20072;-50
2023/07/05 07:40:41;;;;;;;2.28;1.17;;;19.20;99.90;;;;;;5011989;28;20018;-50
2023/07/05 07:43:08;;;;;;;1.83;0.82;;;19.20;99.90;;;;;;5011141;28;20045;-48
2023/07/05 07:45:34;;;;;;;1.92;0.90;;;19.10;99.90;;;;;;5009577;28;20021;-47
2023/07/05 07:48:00;;;;;;;2.40;1.20;;;19.40;99.90;;;;;;5009754;28;20104;-44
2023/07/05 07:50:26;;;;;;;1.70;0.95;;;19.50;99.90;;;;;;5011447;28;20724;-45
2023/07/05 07:52:52;;;;;;;3.70;1.02;;;19.70;99.90;;;;;;5011300;28;20034;-57
2023/07/05 07:55:18;;;;;;;3.28;1.00;;;19.70;99.90;;;;;;5004088;28;20327;-48
2023/07/05 07:57:44;;;;;;;3.63;1.40;;;19.40;99.90;;;;;;5004052;28;20514;-45
2023/07/05 08:00:10;;;;;;;1.60;0.90;;;19.40;99.90;;;;;;5011384;28;20030;-46
2023/07/05 08:02:38;;;;;;;1.60;0.90;;;19.10;99.90;;;;;;5011318;28;20442;-50
2023/07/05 08:05:15;;;;;;;4.05;1.10;;;18.90;99.90;;;;;;5011212;28;20026;-48
2023/07/05 08:07:40;;;;;;;2.92;1.08;;;18.90;99.90;;;;;;5011267;28;20076;-45
2023/07/05 08:10:06;;;;;;;5.05;1.40;;;18.80;99.90;;;;;;5010700;28;20073;-46
2023/07/05 08:12:32;;;;;;;1.92;1.10;;;20.00;99.90;;;;;;5010779;28;20022;-46
2023/07/05 08:14:58;;;;;;;1.30;0.90;;;20.70;99.90;;;;;;5013032;28;20032;-49
2023/07/05 08:17:23;;;;;;;2.22;1.10;;;21.00;99.90;;;;;;5022796;28;20033;-46
2023/07/05 08:19:49;;;;;;;2.85;1.10;;;21.20;99.90;;;;;;5024971;28;20033;-46
2023/07/05 08:22:15;;;;;;;1.30;1.00;;;20.90;99.90;;;;;;5030954;28;20530;-49
2023/07/05 08:24:40;;;;;;;1.98;1.00;;;20.40;99.90;;;;;;5030846;28;20025;-45
2023/07/05 08:27:06;;;;;;;2.83;1.10;;;19.90;99.90;;;;;;5030584;28;20049;-46
2023/07/05 08:29:32;;;;;;;2.35;1.10;;;19.40;99.90;;;;;;5029423;28;20037;-46
2023/07/05 08:31:57;;;;;;;2.08;1.10;;;19.20;99.90;;;;;;5028693;28;20467;-47
2023/07/05 08:34:23;;;;;;;3.35;1.00;;;19.00;99.90;;;;;;5028688;28;20033;-50
2023/07/05 08:36:49;;;;;;;1.52;0.98;;;19.20;99.90;;;;;;5028644;28;20441;-47
2023/07/05 08:39:14;;;;;;;1.80;1.08;;;19.40;99.90;;;;;;5028851;28;20037;-51
2023/07/05 08:41:43;;;;;;;2.75;1.10;;;19.80;99.90;;;;;;5028649;28;20382;-46
2023/07/05 08:44:17;;;;;;;2.92;0.95;;;20.80;99.90;;;;;;5028774;28;20517;-50
2023/07/05 08:46:54;;;;;;;2.85;1.17;;;21.80;99.90;;;;;;5030582;28;20057;-48
2023/07/05 08:49:23;;;;;;;2.15;1.00;;;22.50;99.90;;;;;;5015178;28;20049;-47
2023/07/05 08:51:50;;;;;;;2.25;1.08;;;23.30;99.90;;;;;;5010987;28;20025;-52
2023/07/05 08:54:16;;;;;;;3.33;1.30;;;23.30;99.90;;;;;;5010607;28;20038;-46
2023/07/05 08:56:53;;;;;;;2.67;1.05;;;23.20;99.90;;;;;;5010656;28;20502;-45
2023/07/05 08:59:28;;;;;;;1.90;0.68;;;23.00;99.90;;;;;;5010803;28;20080;-45
2023/07/05 09:01:56;;;;;;;2.22;1.00;;;22.90;99.90;;;;;;4998122;28;20018;-46
2023/07/05 09:04:26;;;;;;;2.85;1.10;;;23.10;99.90;;;;;;5010714;28;20089;-45
2023/07/05 09:06:59;;;;;;;5.60;0.95;;;23.10;99.90;;;;;;5010642;28;20030;-45
2023/07/05 09:09:37;;;;;;;1.33;0.90;;;22.20;99.90;;;;;;5010805;28;20033;-45
2023/07/05 09:12:34;;;;;;;1.27;0.95;;;22.60;99.90;;;;;;5010454;28;20065;-46
2023/07/05 09:15:12;;;;;;;1.67;0.98;;;22.10;99.90;;;;;;5010526;28;20053;-48
2023/07/05 09:17:54;;;;;;;0.93;0.77;;;22.40;99.90;;;;;;5010596;28;20069;-51
2023/07/05 09:20:20;;;;;;;2.03;1.30;;;21.90;99.90;;;;;;5010461;28;20513;-51
2023/07/05 09:22:47;;;;;;;1.40;0.88;;;21.60;99.90;;;;;;5010634;28;20173;-53
2023/07/05 09:25:16;;;;;;;1.45;1.05;;;21.60;99.90;;;;;;5010703;28;20033;-53
2023/07/05 09:27:49;;;;;;;1.58;1.10;;;22.60;99.90;;;;;;5010576;28;20072;-48
2023/07/05 09:30:24;;;;;;;5.85;1.33;;;23.10;99.90;;;;;;5009110;28;20026;-50
2023/07/05 09:33:07;;;;;;;1.83;1.00;;;22.70;99.90;;;;;;5010493;28;20030;-56
2023/07/05 09:35:35;;;;;;;2.45;1.02;;;22.60;99.90;;;;;;5010365;28;20067;-48
2023/07/05 09:38:01;;;;;;;2.20;1.13;;;23.20;99.90;;;;;;5010498;28;20029;-48
2023/07/05 09:40:34;;;;;;;3.20;1.13;;;23.90;99.90;;;;;;5010240;28;20040;-54
2023/07/05 09:43:10;;;;;;;1.95;1.20;;;24.30;99.90;;;;;;5010383;28;20495;-50
2023/07/05 09:45:35;;;;;;;3.38;1.25;;;24.30;99.90;;;;;;5010143;28;20471;-52
2023/07/05 09:48:04;;;;;;;2.50;1.00;;;24.50;99.90;;;;;;5010250;28;20026;-51
2023/07/05 09:50:30;;;;;;;1.90;0.88;;;24.10;99.90;;;;;;5010419;28;20021;-48
2023/07/05 09:53:02;;;;;;;5.95;1.00;;;23.60;99.90;;;;;;5010369;28;20034;-50
2023/07/05 09:55:30;;;;;;;2.83;1.00;;;23.70;99.90;;;;;;5011240;28;20025;-46
2023/07/05 09:57:56;;;;;;;1.57;0.87;;;23.70;99.90;;;;;;5013522;28;20049;-50
2023/07/05 10:00:23;;;;;;;1.65;0.85;;;24.00;99.90;;;;;;5013816;28;20263;-52
2023/07/05 10:02:51;;;;;;;2.45;0.82;;;24.00;99.90;;;;;;5013817;28;20103;-49
2023/07/05 10:05:28;;;;;;;1.20;0.85;;;24.30;99.90;;;;;;5013686;28;20029;-49
2023/07/05 10:07:57;;;;;;;1.95;0.98;;;24.90;99.90;;;;;;5013275;28;20537;-45
2023/07/05 10:10:32;;;;;;;2.08;0.90;;;25.80;99.90;;;;;;5013196;28;20506;-51
2023/07/05 10:13:02;;;;;;;0.80;0.70;;;25.90;99.90;;;;;;5013335;28;20033;-50
2023/07/05 10:15:28;;;;;;;1.30;0.80;;;26.60;99.90;;;;;;5013592;28;20057;-48
2023/07/05 10:17:55;;;;;;;1.77;0.90;;;26.60;99.90;;;;;;5013266;28;20475;-51
2023/07/05 10:20:26;;;;;;;1.10;0.70;;;26.50;99.90;;;;;;5013284;28;20121;-45
2023/07/05 10:23:04;;;;;;;2.65;0.93;;;26.20;99.90;;;;;;5013283;28;20058;-50
2023/07/05 10:25:38;;;;;;;2.93;0.90;;;26.20;99.90;;;;;;5013122;28;20022;-46
2023/07/05 10:28:05;;;;;;;2.85;0.95;;;26.00;99.90;;;;;;5013098;28;20483;-50
2023/07/05 10:30:31;;;;;;;1.23;0.95;;;25.50;99.90;;;;;;5012934;28;20026;-46
2023/07/05 10:33:31;;;;;;;1.27;0.85;;;24.30;99.90;;;;;;5013097;28;20025;-48
2023/07/05 10:36:14;;;;;;;1.40;0.88;;;24.00;99.90;;;;;;5001332;28;20514;-51
2023/07/05 10:38:40;;;;;;;1.65;0.95;;;23.80;99.90;;;;;;5012880;28;20041;-52
2023/07/05 10:41:20;;;;;;;2.00;1.08;;;24.60;99.90;;;;;;5012905;28;20105;-46
2023/07/05 10:43:58;;;;;;;1.85;1.00;;;25.10;99.90;;;;;;5012596;28;20024;-50
2023/07/05 10:46:26;;;;;;;5.73;1.07;;;25.40;99.90;;;;;;5012766;28;20554;-45
2023/07/05 10:48:53;;;;;;;1.63;0.80;;;25.10;99.90;;;;;;5012652;28;20390;-48
2023/07/05 10:51:29;;;;;;;1.00;0.60;;;24.60;99.90;;;;;;5012580;28;20025;-49
2023/07/05 10:54:06;;;;;;;2.33;1.10;;;23.90;99.90;;;;;;5012770;28;20430;-45
2023/07/05 10:56:34;;;;;;;3.08;0.73;;;22.40;99.90;;;;;;5012405;28;20472;-51
2023/07/05 10:59:13;;;;;;;0.80;0.60;;;22.70;99.90;;;;;;5012905;28;20088;-47
2023/07/05 11:01:48;;;;;;;1.10;0.85;;;22.20;99.90;;;;;;5012357;28;20068;-46
2023/07/05 11:04:18;;;;;;;3.90;0.90;;;21.80;99.90;;;;;;5012495;28;20054;-55
2023/07/05 11:06:47;;;;;;;1.48;0.90;;;21.60;99.90;;;;;;5011533;28;20014;-46
2023/07/05 11:09:13;;;;;;;1.80;1.00;;;22.40;99.90;;;;;;5012610;28;20033;-44
2023/07/05 11:11:50;;;;;;;1.42;1.00;;;22.70;99.90;;;;;;5012124;28;20466;-49
2023/07/05 11:14:16;;;;;;;1.63;0.90;;;23.60;99.90;;;;;;5012301;28;20437;-47
2023/07/05 11:16:45;;;;;;;1.05;0.68;;;25.30;99.90;;;;;;5012042;28;20028;-44
2023/07/05 11:19:15;;;;;;;2.22;0.77;;;25.30;99.90;;;;;;5012284;28;20034;-47
2023/07/05 11:21:44;;;;;;;0.80;0.68;;;24.30;99.90;;;;;;5010934;28;20030;-50
2023/07/05 11:24:29;;;;;;;1.10;0.85;;;26.60;99.90;;;;;;5012269;28;20063;-54
2023/07/05 11:26:55;;;;;;;3.30;0.88;;;27.20;99.90;;;;;;5011926;28;20493;-45
2023/07/05 11:29:32;;;;;;;1.25;0.68;;;27.40;99.90;;;;;;5012126;28;20029;-45
2023/07/05 11:32:06;;;;;;;1.10;0.80;;;27.10;99.80;;;;;;5012028;28;20030;-46
2023/07/05 11:34:33;;;;;;;2.10;0.90;;;27.10;99.90;;;;;;5012236;28;20030;-47
2023/07/05 11:37:06;;;;;;;1.25;0.60;;;27.10;97.70;;;;;;5011736;28;20474;-48
2023/07/05 11:39:36;;;;;;;1.20;0.80;;;26.80;99.90;;;;;;5010466;28;20406;-51
2023/07/05 11:42:15;;;;;;;3.17;0.80;;;27.50;99.50;;;;;;5010068;28;20022;-50
2023/07/05 11:44:44;;;;;;;2.73;0.83;;;27.30;98.10;;;;;;5010378;28;20552;-49
2023/07/05 11:47:31;;;;;;;1.55;0.90;;;27.20;97.70;;;;;;5010225;28;20345;-48
2023/07/05 11:50:13;;;;;;;1.45;0.90;;;26.80;96.20;;;;;;4998161;28;20034;-46
2023/07/05 11:53:06;;;;;;;1.00;0.70;;;26.10;98.60;;;;;;5021311;28;20041;-43
2023/07/05 11:55:34;;;;;;;1.30;0.80;;;25.80;99.50;;;;;;5021230;28;20041;-43
2023/07/05 11:58:01;;;;;;;2.10;0.85;;;24.90;98.20;;;;;;5011449;28;20042;-44
2023/07/05 12:00:27;;;;;;;1.50;0.80;;;24.40;98.60;;;;;;5010383;28;20061;-48
2023/07/05 12:03:04;;;;;;;1.75;0.80;;;22.70;98.70;;;;;;5011485;28;20029;-46
2023/07/05 12:05:32;;;;;;;1.05;0.77;;;24.10;99.20;;;;;;5009133;28;20751;-47
2023/07/05 12:08:10;;;;;;;1.00;0.60;;;24.80;96.20;;;;;;5011372;28;20033;-46
2023/07/05 12:10:36;;;;;;;1.00;0.80;;;25.60;98.50;;;;;;5008217;28;20046;-54
2023/07/05 12:13:07;;;;;;;1.45;0.88;;;25.00;98.80;;;;;;5011105;28;20084;-44
2023/07/05 12:15:37;;;;;;;1.17;0.60;;;25.50;99.20;;;;;;5007763;28;20456;-44
2023/07/05 12:18:03;;;;;;;1.00;0.70;;;25.40;96.20;;;;;;5000688;28;20089;-47
2023/07/05 12:20:41;;;;;;;0.95;0.65;;;24.60;94.80;;;;;;5027281;28;20025;-52
2023/07/05 12:23:13;;;;;;;0.80;0.60;;;23.90;95.50;;;;;;5018503;28;20026;-50
2023/07/05 12:25:39;;;;;;;2.15;0.80;;;22.40;96.70;;;;;;5010780;28;20030;-48
2023/07/05 12:28:17;;;;;;;3.33;0.80;;;22.90;98.30;;;;;;5009681;28;20026;-49
2023/07/05 12:30:44;;;;;;;2.67;1.00;;;21.70;98.90;;;;;;5008832;28;20018;-47
2023/07/05 12:33:34;;;;;;;1.48;0.80;;;22.20;99.30;;;;;;5010622;28;20171;-51
2023/07/05 12:36:16;;;;;;;2.20;1.00;;;22.10;99.90;;;;;;5010632;28;20033;-50
2023/07/05 12:38:44;;;;;;;1.10;0.70;;;22.10;99.50;;;;;;5003789;28;20034;-51
2023/07/05 12:41:24;;;;;;;5.70;1.48;;;22.00;99.90;;;;;;5010528;28;20029;-47
2023/07/05 12:43:58;;;;;;;3.00;1.27;;;22.70;99.90;;;;;;5010821;28;20029;-51
2023/07/05 12:46:26;;;;;;;2.53;1.45;;;22.70;99.90;;;;;;5009513;28;20025;-47
2023/07/05 12:48:52;;;;;;;2.40;1.10;;;23.20;99.90;;;;;;5010599;28;20506;-51
2023/07/05 12:51:25;;;;;;;1.40;0.88;;;23.30;99.90;;;;;;5010537;28;20022;-50
2023/07/05 12:53:59;;;;;;;2.33;1.48;;;23.60;99.90;;;;;;5010693;28;20036;-50
2023/07/05 12:56:38;;;;;;;2.45;1.00;;;23.70;99.90;;;;;;5010607;28;20018;-51
2023/07/05 12:59:16;;;;;;;4.25;1.10;;;23.80;99.90;;;;;;5010686;28;20092;-50